sensor_id;sensor_type;location;lat;lon;timestamp;pressure;altitude;pressure_sealevel;temperature;humidity
67099;BME280;54288;53.046;5.668;2023-07-31T00:00:14;100860.56;;;17.14;100.00
67099;BME280;54288;53.046;5.668;2023-07-31T00:02:41;100856.97;;;17.15;100.00
67099;BME280;54288;53.046;5.668;2023-07-31T00:05:08;100858.78;;;17.15;100.00
67099;BME280;54288;53.046;5.668;2023-07-31T00:07:35;100864.91;;;17.15;100.00
67099;BME280;54288;53.046;5.668;2023-07-31T00:10:01;100856.13;;;17.15;100.00
67099;BME280;54288;53.046;5.668;2023-07-31T00:12:26;100856.97;;;17.15;100.00
67099;BME280;54288;53.046;5.668;2023-07-31T00:14:52;100843.97;;;17.11;100.00
67099;BME280;54288;53.046;5.668;2023-07-31T00:17:18;100858.63;;;17.18;100.00
67099;BME280;54288;53.046;5.668;2023-07-31T00:19:44;100856.91;;;17.17;100.00
67099;BME280;54288;53.046;5.668;2023-07-31T00:22:11;100849.91;;;17.16;100.00
67099;BME280;54288;53.046;5.668;2023-07-31T00:24:37;100849.91;;;17.16;100.00
67099;BME280;54288;53.046;5.668;2023-07-31T00:27:03;100844.91;;;17.10;100.00
67099;BME280;54288;53.046;5.668;2023-07-31T00:29:29;100844.75;;;17.13;100.00
67099;BME280;54288;53.046;5.668;2023-07-31T00:31:56;100837.88;;;17.09;100.00
67099;BME280;54288;53.046;5.668;2023-07-31T00:34:22;100843.81;;;17.14;100.00
67099;BME280;54288;53.046;5.668;2023-07-31T00:36:48;100846.44;;;17.14;100.00
67099;BME280;54288;53.046;5.668;2023-07-31T00:39:15;100850.09;;;17.11;100.00
67099;BME280;54288;53.046;5.668;2023-07-31T00:41:44;100841.44;;;17.08;100.00
67099;BME280;54288;53.046;5.668;2023-07-31T00:44:09;100840.59;;;17.07;100.00
67099;BME280;54288;53.046;5.668;2023-07-31T00:46:35;100835.38;;;17.06;100.00
67099;BME280;54288;53.046;5.668;2023-07-31T00:49:02;100838.97;;;17.05;100.00
67099;BME280;54288;53.046;5.668;2023-07-31T00:51:28;100834.66;;;17.02;100.00
67099;BME280;54288;53.046;5.668;2023-07-31T00:53:55;100841.03;;;16.98;100.00
67099;BME280;54288;53.046;5.668;2023-07-31T00:56:22;100833.31;;;16.94;100.00
67099;BME280;54288;53.046;5.668;2023-07-31T00:58:49;100833.44;;;16.91;100.00
67099;BME280;54288;53.046;5.668;2023-07-31T01:01:15;100837.03;;;16.90;100.00
67099;BME280;54288;53.046;5.668;2023-07-31T01:03:41;100832.06;;;16.82;100.00
67099;BME280;54288;53.046;5.668;2023-07-31T01:12:02;100826.34;;;16.73;100.00
67099;BME280;54288;53.046;5.668;2023-07-31T01:14:27;100820.13;;;16.74;100.00
67099;BME280;54288;53.046;5.668;2023-07-31T01:16:53;100814.00;;;16.73;100.00
67099;BME280;54288;53.046;5.668;2023-07-31T01:19:23;100819.34;;;16.72;100.00
67099;BME280;54288;53.046;5.668;2023-07-31T01:24:49;100806.06;;;16.73;100.00
67099;BME280;54288;53.046;5.668;2023-07-31T01:27:25;100809.56;;;16.74;100.00
67099;BME280;54288;53.046;5.668;2023-07-31T01:30:07;100804.25;;;16.74;100.00
67099;BME280;54288;53.046;5.668;2023-07-31T01:32:42;100811.19;;;16.76;100.00
67099;BME280;54288;53.046;5.668;2023-07-31T01:35:09;100812.78;;;16.80;100.00
67099;BME280;54288;53.046;5.668;2023-07-31T01:37:35;100804.78;;;16.82;100.00
67099;BME280;54288;53.046;5.668;2023-07-31T01:40:01;100799.69;;;16.77;100.00
67099;BME280;54288;53.046;5.668;2023-07-31T01:42:27;100807.00;;;16.72;100.00
67099;BME280;54288;53.046;5.668;2023-07-31T01:44:52;100797.41;;;16.70;100.00
67099;BME280;54288;53.046;5.668;2023-07-31T01:47:19;100800.84;;;16.72;100.00
67099;BME280;54288;53.046;5.668;2023-07-31T01:49:44;100785.91;;;16.71;100.00
67099;BME280;54288;53.046;5.668;2023-07-31T01:52:13;100788.56;;;16.71;100.00
67099;BME280;54288;53.046;5.668;2023-07-31T01:54:39;100788.56;;;16.71;100.00
67099;BME280;54288;53.046;5.668;2023-07-31T01:57:04;100776.31;;;16.68;100.00
67099;BME280;54288;53.046;5.668;2023-07-31T01:59:30;100778.25;;;16.65;100.00
67099;BME280;54288;53.046;5.668;2023-07-31T02:01:56;100772.03;;;16.66;100.00
67099;BME280;54288;53.046;5.668;2023-07-31T02:04:22;100772.81;;;16.68;100.00
67099;BME280;54288;53.046;5.668;2023-07-31T02:06:47;100773.63;;;16.70;100.00
67099;BME280;54288;53.046;5.668;2023-07-31T02:09:13;100774.69;;;16.66;100.00
67099;BME280;54288;53.046;5.668;2023-07-31T02:11:38;100773.81;;;16.65;100.00
67099;BME280;54288;53.046;5.668;2023-07-31T02:14:04;100778.25;;;16.65;100.00
67099;BME280;54288;53.046;5.668;2023-07-31T02:16:30;100767.81;;;16.62;100.00
67099;BME280;54288;53.046;5.668;2023-07-31T02:18:55;100766.16;;;16.59;100.00
67099;BME280;54288;53.046;5.668;2023-07-31T02:21:21;100757.41;;;16.59;100.00
67099;BME280;54288;53.046;5.668;2023-07-31T02:23:47;100756.69;;;16.55;100.00
67099;BME280;54288;53.046;5.668;2023-07-31T02:26:13;100763.88;;;16.52;100.00
67099;BME280;54288;53.046;5.668;2023-07-31T02:28:38;100766.50;;;16.52;100.00
67099;BME280;54288;53.046;5.668;2023-07-31T02:31:04;100762.31;;;16.48;100.00
67099;BME280;54288;53.046;5.668;2023-07-31T02:33:30;100766.06;;;16.42;100.00
67099;BME280;54288;53.046;5.668;2023-07-31T02:35:55;100760.88;;;16.41;100.00
67099;BME280;54288;53.046;5.668;2023-07-31T02:38:21;100758.31;;;16.39;100.00
67099;BME280;54288;53.046;5.668;2023-07-31T02:40:47;100746.06;;;16.37;100.00
67099;BME280;54288;53.046;5.668;2023-07-31T02:43:13;100743.53;;;16.34;100.00
67099;BME280;54288;53.046;5.668;2023-07-31T02:45:39;100752.19;;;16.37;100.00
67099;BME280;54288;53.046;5.668;2023-07-31T02:48:05;100743.38;;;16.38;100.00
67099;BME280;54288;53.046;5.668;2023-07-31T02:50:31;100742.47;;;16.38;100.00
67099;BME280;54288;53.046;5.668;2023-07-31T02:52:57;100743.38;;;16.38;100.00
67099;BME280;54288;53.046;5.668;2023-07-31T02:55:23;100739.81;;;16.39;100.00
67099;BME280;54288;53.046;5.668;2023-07-31T02:57:49;100735.34;;;16.40;100.00
67099;BME280;54288;53.046;5.668;2023-07-31T03:00:14;100727.38;;;16.41;100.00
67099;BME280;54288;53.046;5.668;2023-07-31T03:02:40;100727.25;;;16.44;100.00
67099;BME280;54288;53.046;5.668;2023-07-31T03:05:06;100718.59;;;16.41;100.00
67099;BME280;54288;53.046;5.668;2023-07-31T03:07:32;100716.72;;;16.43;100.00
67099;BME280;54288;53.046;5.668;2023-07-31T03:09:58;100722.84;;;16.43;100.00
67099;BME280;54288;53.046;5.668;2023-07-31T03:12:23;100726.38;;;16.44;100.00
67099;BME280;54288;53.046;5.668;2023-07-31T03:14:49;100719.31;;;16.44;100.00
67099;BME280;54288;53.046;5.668;2023-07-31T03:17:15;100715.78;;;16.44;100.00
67099;BME280;54288;53.046;5.668;2023-07-31T03:19:41;100710.50;;;16.44;100.00
67099;BME280;54288;53.046;5.668;2023-07-31T03:22:06;100715.72;;;16.45;100.00
67099;BME280;54288;53.046;5.668;2023-07-31T03:24:32;100717.50;;;16.45;100.00
67099;BME280;54288;53.046;5.668;2023-07-31T03:26:58;100713.94;;;16.46;100.00
67099;BME280;54288;53.046;5.668;2023-07-31T03:29:23;100715.72;;;16.45;100.00
67099;BME280;54288;53.046;5.668;2023-07-31T03:31:49;100709.44;;;16.48;100.00
67099;BME280;54288;53.046;5.668;2023-07-31T03:34:15;100709.28;;;16.51;100.00
67099;BME280;54288;53.046;5.668;2023-07-31T03:36:40;100706.81;;;16.48;100.00
67099;BME280;54288;53.046;5.668;2023-07-31T03:39:06;100710.09;;;16.53;100.00
67099;BME280;54288;53.046;5.668;2023-07-31T03:41:32;100704.81;;;16.53;100.00
67099;BME280;54288;53.046;5.668;2023-07-31T03:43:58;100702.34;;;16.48;100.00
67099;BME280;54288;53.046;5.668;2023-07-31T03:46:24;100710.09;;;16.53;100.00
67099;BME280;54288;53.046;5.668;2023-07-31T03:48:50;100695.34;;;16.47;100.00
67099;BME280;54288;53.046;5.668;2023-07-31T03:51:16;100702.06;;;16.54;100.00
67099;BME280;54288;53.046;5.668;2023-07-31T03:53:43;100702.94;;;16.55;100.00
67099;BME280;54288;53.046;5.668;2023-07-31T03:56:09;100692.47;;;16.52;100.00
67099;BME280;54288;53.046;5.668;2023-07-31T03:58:35;100694.78;;;16.59;100.00
67099;BME280;54288;53.046;5.668;2023-07-31T04:01:03;100695.66;;;16.60;100.00
67099;BME280;54288;53.046;5.668;2023-07-31T04:03:30;100699.94;;;16.62;100.00
67099;BME280;54288;53.046;5.668;2023-07-31T04:05:56;100695.66;;;16.60;100.00
67099;BME280;54288;53.046;5.668;2023-07-31T04:08:25;100703.59;;;16.60;100.00
67099;BME280;54288;53.046;5.668;2023-07-31T04:10:50;100703.59;;;16.60;100.00
67099;BME280;54288;53.046;5.668;2023-07-31T04:13:16;100710.00;;;16.54;100.00
67099;BME280;54288;53.046;5.668;2023-07-31T04:15:42;100706.50;;;16.54;100.00
67099;BME280;54288;53.046;5.668;2023-07-31T04:18:08;100705.94;;;16.47;100.00
67099;BME280;54288;53.046;5.668;2023-07-31T04:20:34;100699.22;;;16.40;100.00
67099;BME280;54288;53.046;5.668;2023-07-31T04:22:59;100697.50;;;16.39;100.00
67099;BME280;54288;53.046;5.668;2023-07-31T04:25:25;100689.69;;;16.36;100.00
67099;BME280;54288;53.046;5.668;2023-07-31T04:27:51;100687.88;;;16.38;100.00
67099;BME280;54288;53.046;5.668;2023-07-31T04:30:16;100692.31;;;16.36;100.00
67099;BME280;54288;53.046;5.668;2023-07-31T04:32:42;100691.47;;;16.36;100.00
67099;BME280;54288;53.046;5.668;2023-07-31T04:35:08;100685.25;;;16.37;100.00
67099;BME280;54288;53.046;5.668;2023-07-31T04:37:34;100679.16;;;16.35;100.00
67099;BME280;54288;53.046;5.668;2023-07-31T04:39:59;100681.66;;;16.39;100.00
67099;BME280;54288;53.046;5.668;2023-07-31T04:42:25;100675.38;;;16.42;100.00
67099;BME280;54288;53.046;5.668;2023-07-31T04:44:51;100676.84;;;16.47;100.00
67099;BME280;54288;53.046;5.668;2023-07-31T04:47:18;100674.16;;;16.49;100.00
67099;BME280;54288;53.046;5.668;2023-07-31T04:49:44;100677.28;;;16.57;100.00
67099;BME280;54288;53.046;5.668;2023-07-31T04:52:10;100670.78;;;16.64;100.00
67099;BME280;54288;53.046;5.668;2023-07-31T04:54:36;100673.25;;;16.67;100.00
67099;BME280;54288;53.046;5.668;2023-07-31T04:57:01;100669.78;;;16.66;100.00
67099;BME280;54288;53.046;5.668;2023-07-31T04:59:27;100669.69;;;16.68;100.00
67099;BME280;54288;53.046;5.668;2023-07-31T05:01:53;100666.28;;;16.66;100.00
67099;BME280;54288;53.046;5.668;2023-07-31T05:04:19;100661.75;;;16.68;100.00
67099;BME280;54288;53.046;5.668;2023-07-31T05:06:44;100666.75;;;16.74;100.00
67099;BME280;54288;53.046;5.668;2023-07-31T05:09:10;100660.69;;;16.72;100.00
67099;BME280;54288;53.046;5.668;2023-07-31T05:11:36;100648.34;;;16.72;100.00
67099;BME280;54288;53.046;5.668;2023-07-31T05:14:01;100661.38;;;16.75;100.00
67099;BME280;54288;53.046;5.668;2023-07-31T05:16:27;100654.38;;;16.74;100.00
67099;BME280;54288;53.046;5.668;2023-07-31T05:18:53;100653.53;;;16.74;100.00
67099;BME280;54288;53.046;5.668;2023-07-31T05:21:18;100649.16;;;16.73;100.00
67099;BME280;54288;53.046;5.668;2023-07-31T05:23:44;100642.88;;;16.75;100.00
67099;BME280;54288;53.046;5.668;2023-07-31T05:26:10;100646.28;;;16.77;100.00
67099;BME280;54288;53.046;5.668;2023-07-31T05:28:36;100646.16;;;16.80;100.00
67099;BME280;54288;53.046;5.668;2023-07-31T05:31:05;100654.03;;;16.82;100.00
67099;BME280;54288;53.046;5.668;2023-07-31T05:33:31;100640.72;;;16.83;100.00
67099;BME280;54288;53.046;5.668;2023-07-31T05:35:57;100637.84;;;16.88;100.00
67099;BME280;54288;53.046;5.668;2023-07-31T05:38:23;100634.13;;;16.92;100.00
67099;BME280;54288;53.046;5.668;2023-07-31T05:40:48;100637.53;;;16.94;100.00
67099;BME280;54288;53.046;5.668;2023-07-31T05:43:14;100626.66;;;17.00;100.00
67099;BME280;54288;53.046;5.668;2023-07-31T05:45:42;100642.38;;;17.03;100.00
67099;BME280;54288;53.046;5.668;2023-07-31T05:48:08;100624.78;;;17.02;100.00
67099;BME280;54288;53.046;5.668;2023-07-31T05:50:34;100614.06;;;17.05;100.00
67099;BME280;54288;53.046;5.668;2023-07-31T05:53:00;100609.72;;;17.04;100.00
67099;BME280;54288;53.046;5.668;2023-07-31T05:55:26;100613.25;;;17.03;100.00
67099;BME280;54288;53.046;5.668;2023-07-31T05:57:52;100610.47;;;17.06;100.00
67099;BME280;54288;53.046;5.668;2023-07-31T06:00:18;100606.06;;;17.06;100.00
67099;BME280;54288;53.046;5.668;2023-07-31T06:02:44;100606.75;;;17.10;100.00
67099;BME280;54288;53.046;5.668;2023-07-31T06:05:10;100611.63;;;17.17;100.00
67099;BME280;54288;53.046;5.668;2023-07-31T06:07:35;100607.97;;;17.20;100.00
67099;BME280;54288;53.046;5.668;2023-07-31T06:10:01;100609.53;;;17.24;100.00
67099;BME280;54288;53.046;5.668;2023-07-31T06:12:31;100612.09;;;17.25;100.00
67099;BME280;54288;53.046;5.668;2023-07-31T06:14:57;100611.25;;;17.25;100.00
67099;BME280;54288;53.046;5.668;2023-07-31T06:17:23;100605.00;;;17.26;100.00
67099;BME280;54288;53.046;5.668;2023-07-31T06:19:49;100600.66;;;17.25;100.00
67099;BME280;54288;53.046;5.668;2023-07-31T06:22:15;100584.78;;;17.25;100.00
67099;BME280;54288;53.046;5.668;2023-07-31T06:24:41;100584.69;;;17.26;100.00
67099;BME280;54288;53.046;5.668;2023-07-31T06:27:06;100592.31;;;17.32;100.00
67099;BME280;54288;53.046;5.668;2023-07-31T06:29:32;100592.66;;;17.43;100.00
67099;BME280;54288;53.046;5.668;2023-07-31T06:31:58;100592.25;;;17.51;100.00
67099;BME280;54288;53.046;5.668;2023-07-31T06:34:24;100584.25;;;17.52;100.00
67099;BME280;54288;53.046;5.668;2023-07-31T06:36:50;100583.38;;;17.52;100.00
67099;BME280;54288;53.046;5.668;2023-07-31T06:39:15;100578.00;;;17.53;100.00
67099;BME280;54288;53.046;5.668;2023-07-31T06:41:43;100577.22;;;17.51;100.00
67099;BME280;54288;53.046;5.668;2023-07-31T06:44:10;100574.66;;;17.50;100.00
67099;BME280;54288;53.046;5.668;2023-07-31T06:46:36;100571.31;;;17.46;100.00
67099;BME280;54288;53.046;5.668;2023-07-31T06:49:02;100561.06;;;17.40;100.00
67099;BME280;54288;53.046;5.668;2023-07-31T06:51:27;100557.38;;;17.43;100.00
67099;BME280;54288;53.046;5.668;2023-07-31T06:53:53;100566.88;;;17.47;100.00
67099;BME280;54288;53.046;5.668;2023-07-31T06:56:21;100556.22;;;17.48;100.00
67099;BME280;54288;53.046;5.668;2023-07-31T06:58:47;100544.69;;;17.65;100.00
67099;BME280;54288;53.046;5.668;2023-07-31T07:01:12;100545.16;;;17.73;100.00
67099;BME280;54288;53.046;5.668;2023-07-31T07:03:38;100542.31;;;17.76;100.00
67099;BME280;54288;53.046;5.668;2023-07-31T07:06:04;100540.38;;;17.79;100.00
67099;BME280;54288;53.046;5.668;2023-07-31T07:08:30;100550.28;;;17.76;100.00
67099;BME280;54288;53.046;5.668;2023-07-31T07:10:55;100540.81;;;17.72;100.00
67099;BME280;54288;53.046;5.668;2023-07-31T07:13:21;100541.91;;;17.68;100.00
67099;BME280;54288;53.046;5.668;2023-07-31T07:15:51;100532.41;;;17.64;100.00
67099;BME280;54288;53.046;5.668;2023-07-31T07:18:18;100542.66;;;17.70;100.00
67099;BME280;54288;53.046;5.668;2023-07-31T07:20:49;100540.00;;;17.70;100.00
67099;BME280;54288;53.046;5.668;2023-07-31T07:23:15;100538.31;;;17.69;100.00
67099;BME280;54288;53.046;5.668;2023-07-31T07:25:41;100535.84;;;17.66;100.00
67099;BME280;54288;53.046;5.668;2023-07-31T07:28:06;100541.03;;;17.67;100.00
67099;BME280;54288;53.046;5.668;2023-07-31T07:30:32;100529.50;;;17.68;100.00
67099;BME280;54288;53.046;5.668;2023-07-31T07:32:58;100524.91;;;17.72;100.00
67099;BME280;54288;53.046;5.668;2023-07-31T07:35:23;100535.84;;;17.66;100.00
67099;BME280;54288;53.046;5.668;2023-07-31T07:37:49;100525.06;;;17.69;100.00
67099;BME280;54288;53.046;5.668;2023-07-31T07:40:19;100528.47;;;17.71;100.00
67099;BME280;54288;53.046;5.668;2023-07-31T07:42:45;100520.72;;;17.83;100.00
67099;BME280;54288;53.046;5.668;2023-07-31T07:45:10;100520.56;;;17.86;100.00
67099;BME280;54288;53.046;5.668;2023-07-31T07:47:38;100525.75;;;17.88;100.00
67099;BME280;54288;53.046;5.668;2023-07-31T07:50:03;100530.16;;;17.89;100.00
67099;BME280;54288;53.046;5.668;2023-07-31T07:52:29;100522.19;;;17.89;100.00
67099;BME280;54288;53.046;5.668;2023-07-31T07:54:55;100515.75;;;17.93;100.00
67099;BME280;54288;53.046;5.668;2023-07-31T07:57:21;100512.09;;;17.95;100.00
67099;BME280;54288;53.046;5.668;2023-07-31T07:59:46;100518.19;;;17.97;100.00
67099;BME280;54288;53.046;5.668;2023-07-31T08:02:12;100516.44;;;17.96;100.00
67099;BME280;54288;53.046;5.668;2023-07-31T08:04:38;100514.06;;;17.92;100.00
67099;BME280;54288;53.046;5.668;2023-07-31T08:07:04;100513.97;;;17.93;100.00
67099;BME280;54288;53.046;5.668;2023-07-31T08:09:29;100508.41;;;17.98;100.00
67099;BME280;54288;53.046;5.668;2023-07-31T08:11:55;100510.38;;;17.94;100.00
67099;BME280;54288;53.046;5.668;2023-07-31T08:14:23;100502.38;;;17.96;100.00
67099;BME280;54288;53.046;5.668;2023-07-31T08:16:48;100508.94;;;18.04;100.00
67099;BME280;54288;53.046;5.668;2023-07-31T08:19:14;100499.97;;;18.07;100.00
67099;BME280;54288;53.046;5.668;2023-07-31T08:21:40;100494.25;;;18.14;100.00
67099;BME280;54288;53.046;5.668;2023-07-31T08:24:05;100504.66;;;18.17;100.00
67099;BME280;54288;53.046;5.668;2023-07-31T08:26:31;100494.38;;;18.27;100.00
67099;BME280;54288;53.046;5.668;2023-07-31T08:28:57;100495.44;;;18.40;100.00
67099;BME280;54288;53.046;5.668;2023-07-31T08:31:23;100489.22;;;18.55;100.00
67099;BME280;54288;53.046;5.668;2023-07-31T08:33:49;100485.81;;;18.53;100.00
67099;BME280;54288;53.046;5.668;2023-07-31T08:36:15;100485.03;;;18.51;100.00
67099;BME280;54288;53.046;5.668;2023-07-31T08:38:40;100483.75;;;18.58;100.00
67099;BME280;54288;53.046;5.668;2023-07-31T08:41:06;100482.56;;;18.48;100.00
67099;BME280;54288;53.046;5.668;2023-07-31T08:43:32;100489.41;;;18.52;100.00
67099;BME280;54288;53.046;5.668;2023-07-31T08:45:58;100487.47;;;18.40;100.00
67099;BME280;54288;53.046;5.668;2023-07-31T08:48:25;100491.03;;;18.39;100.00
67099;BME280;54288;53.046;5.668;2023-07-31T08:50:52;100487.38;;;18.41;100.00
67099;BME280;54288;53.046;5.668;2023-07-31T08:53:18;100483.69;;;18.44;100.00
67099;BME280;54288;53.046;5.668;2023-07-31T08:55:45;100490.34;;;18.51;100.00
67099;BME280;54288;53.046;5.668;2023-07-31T08:58:13;100482.03;;;18.57;100.00
67099;BME280;54288;53.046;5.668;2023-07-31T09:00:41;100483.75;;;18.58;100.00
67099;BME280;54288;53.046;5.668;2023-07-31T09:03:14;100485.81;;;18.53;100.00
67099;BME280;54288;53.046;5.668;2023-07-31T09:05:44;100489.06;;;18.58;100.00
67099;BME280;54288;53.046;5.668;2023-07-31T09:08:12;100485.44;;;18.59;100.00
67099;BME280;54288;53.046;5.668;2023-07-31T09:10:45;100487.34;;;18.57;100.00
67099;BME280;54288;53.046;5.668;2023-07-31T09:13:12;100482.44;;;18.65;100.00
67099;BME280;54288;53.046;5.668;2023-07-31T09:15:40;100485.47;;;18.73;100.00
67099;BME280;54288;53.046;5.668;2023-07-31T09:18:07;100476.03;;;18.83;100.00
67099;BME280;54288;53.046;5.668;2023-07-31T09:20:33;100481.38;;;18.97;100.00
67099;BME280;54288;53.046;5.668;2023-07-31T09:23:11;100473.13;;;19.01;100.00
67099;BME280;54288;53.046;5.668;2023-07-31T09:25:38;100469.44;;;19.04;100.00
67099;BME280;54288;53.046;5.668;2023-07-31T09:28:06;100483.88;;;19.14;100.00
67099;BME280;54288;53.046;5.668;2023-07-31T09:30:49;100470.47;;;19.01;100.00
67099;BME280;54288;53.046;5.668;2023-07-31T09:33:16;100476.63;;;19.02;100.00
67099;BME280;54288;53.046;5.668;2023-07-31T09:35:42;100472.47;;;18.98;100.00
67099;BME280;54288;53.046;5.668;2023-07-31T09:38:15;100473.25;;;19.14;100.00
67099;BME280;54288;53.046;5.668;2023-07-31T09:40:44;100484.69;;;19.14;100.00
67099;BME280;54288;53.046;5.668;2023-07-31T09:43:12;100470.00;;;19.09;100.00
67099;BME280;54288;53.046;5.668;2023-07-31T09:45:41;100468.25;;;19.23;100.00
67099;BME280;54288;53.046;5.668;2023-07-31T09:48:08;100469.28;;;19.21;100.00
67099;BME280;54288;53.046;5.668;2023-07-31T09:50:37;100473.44;;;19.25;100.00
67099;BME280;54288;53.046;5.668;2023-07-31T09:53:05;100479.72;;;19.38;100.00
67099;BME280;54288;53.046;5.668;2023-07-31T09:55:30;100461.31;;;19.49;100.00
67099;BME280;54288;53.046;5.668;2023-07-31T09:57:58;100457.06;;;19.46;100.00
67099;BME280;54288;53.046;5.668;2023-07-31T10:00:24;100458.56;;;19.36;100.00
67099;BME280;54288;53.046;5.668;2023-07-31T10:02:54;100455.63;;;19.27;100.00
67099;BME280;54288;53.046;5.668;2023-07-31T10:06:09;100462.25;;;19.20;100.00
67099;BME280;54288;53.046;5.668;2023-07-31T10:08:18;100462.31;;;19.04;100.00
67099;BME280;54288;53.046;5.668;2023-07-31T10:10:46;100456.91;;;18.92;100.00
67099;BME280;54288;53.046;5.668;2023-07-31T10:13:15;100462.41;;;18.89;100.00
67099;BME280;54288;53.046;5.668;2023-07-31T10:15:42;100465.03;;;18.89;100.00
67099;BME280;54288;53.046;5.668;2023-07-31T10:18:09;100459.66;;;18.90;100.00
67099;BME280;54288;53.046;5.668;2023-07-31T10:20:36;100455.75;;;18.96;100.00
67099;BME280;54288;53.046;5.668;2023-07-31T10:23:02;100452.41;;;19.36;100.00
67099;BME280;54288;53.046;5.668;2023-07-31T10:25:29;100448.91;;;19.35;100.00
67099;BME280;54288;53.046;5.668;2023-07-31T10:27:57;100461.59;;;19.44;100.00
67099;BME280;54288;53.046;5.668;2023-07-31T10:30:30;100456.41;;;19.43;100.00
67099;BME280;54288;53.046;5.668;2023-07-31T10:32:58;100458.38;;;19.25;100.00
67099;BME280;54288;53.046;5.668;2023-07-31T10:35:24;100449.47;;;19.26;100.00
67099;BME280;54288;53.046;5.668;2023-07-31T10:37:50;100450.31;;;19.41;100.00
67099;BME280;54288;53.046;5.668;2023-07-31T10:40:25;100460.72;;;19.58;100.00
67099;BME280;54288;53.046;5.668;2023-07-31T10:42:53;100457.28;;;19.84;100.00
67099;BME280;54288;53.046;5.668;2023-07-31T10:45:31;100458.38;;;20.08;100.00
67099;BME280;54288;53.046;5.668;2023-07-31T10:48:02;100458.50;;;19.92;100.00
67099;BME280;54288;53.046;5.668;2023-07-31T10:50:30;100455.53;;;19.97;100.00
67099;BME280;54288;53.046;5.668;2023-07-31T10:52:59;100469.78;;;19.96;100.00
67099;BME280;54288;53.046;5.668;2023-07-31T10:55:41;100461.25;;;19.91;100.00
67099;BME280;54288;53.046;5.668;2023-07-31T10:58:11;100462.59;;;19.84;100.00
67099;BME280;54288;53.046;5.668;2023-07-31T11:00:42;100474.00;;;19.72;100.00
67099;BME280;54288;53.046;5.668;2023-07-31T11:05:51;100467.34;;;19.65;100.00
67099;BME280;54288;53.046;5.668;2023-07-31T11:08:34;100467.81;;;19.71;100.00
67099;BME280;54288;53.046;5.668;2023-07-31T11:13:44;100467.91;;;19.84;100.00
67099;BME280;54288;53.046;5.668;2023-07-31T11:16:12;100461.16;;;19.78;100.00
67099;BME280;54288;53.046;5.668;2023-07-31T11:18:40;100458.97;;;19.85;100.00
67099;BME280;54288;53.046;5.668;2023-07-31T11:21:07;100451.56;;;19.76;100.00
67099;BME280;54288;53.046;5.668;2023-07-31T11:23:33;100466.25;;;19.95;100.00
67099;BME280;54288;53.046;5.668;2023-07-31T11:25:59;100462.53;;;19.98;100.00
67099;BME280;54288;53.046;5.668;2023-07-31T11:28:25;100450.34;;;19.81;100.00
67099;BME280;54288;53.046;5.668;2023-07-31T11:30:51;100452.34;;;19.78;100.00
67099;BME280;54288;53.046;5.668;2023-07-31T11:33:17;100443.50;;;19.91;100.00
67099;BME280;54288;53.046;5.668;2023-07-31T11:35:47;100443.94;;;20.12;100.00
67099;BME280;54288;53.046;5.668;2023-07-31T11:38:28;100440.66;;;20.21;100.00
67099;BME280;54288;53.046;5.668;2023-07-31T11:40:56;100441.41;;;20.23;100.00
67099;BME280;54288;53.046;5.668;2023-07-31T11:43:23;100443.03;;;20.25;100.00
67099;BME280;54288;53.046;5.668;2023-07-31T11:46:00;100445.41;;;20.16;100.00
67099;BME280;54288;53.046;5.668;2023-07-31T11:48:31;100442.75;;;20.16;100.00
67099;BME280;54288;53.046;5.668;2023-07-31T11:51:04;100450.22;;;20.11;100.00
67099;BME280;54288;53.046;5.668;2023-07-31T11:56:04;100450.56;;;20.05;100.00
67099;BME280;54288;53.046;5.668;2023-07-31T11:58:35;100451.91;;;19.98;100.00
67099;BME280;54288;53.046;5.668;2023-07-31T12:01:02;100453.50;;;20.00;100.00
67099;BME280;54288;53.046;5.668;2023-07-31T12:03:28;100440.03;;;20.03;100.00
67099;BME280;54288;53.046;5.668;2023-07-31T12:05:54;100440.13;;;20.02;100.00
67099;BME280;54288;53.046;5.668;2023-07-31T12:08:21;100440.00;;;20.17;100.00
67099;BME280;54288;53.046;5.668;2023-07-31T12:10:50;100440.38;;;20.25;100.00
67099;BME280;54288;53.046;5.668;2023-07-31T12:13:25;100458.16;;;20.37;100.00
67099;BME280;54288;53.046;5.668;2023-07-31T12:15:55;100457.41;;;20.35;100.00
67099;BME280;54288;53.046;5.668;2023-07-31T12:18:24;100460.28;;;20.32;100.00
67099;BME280;54288;53.046;5.668;2023-07-31T12:20:55;100464.88;;;20.43;100.00
67099;BME280;54288;53.046;5.668;2023-07-31T12:23:27;100463.72;;;20.47;100.00
67099;BME280;54288;53.046;5.668;2023-07-31T12:26:10;100451.94;;;20.51;100.00
67099;BME280;54288;53.046;5.668;2023-07-31T12:28:37;100454.22;;;20.43;100.00
67099;BME280;54288;53.046;5.668;2023-07-31T12:31:05;100441.69;;;20.18;100.00
67099;BME280;54288;53.046;5.668;2023-07-31T12:33:36;100439.25;;;20.15;100.00
67099;BME280;54288;53.046;5.668;2023-07-31T12:36:10;100434.19;;;20.25;100.00
67099;BME280;54288;53.046;5.668;2023-07-31T12:38:36;100430.78;;;20.35;100.00
67099;BME280;54288;53.046;5.668;2023-07-31T12:41:02;100418.69;;;20.31;100.00
67099;BME280;54288;53.046;5.668;2023-07-31T12:43:28;100430.28;;;20.30;100.00
67099;BME280;54288;53.046;5.668;2023-07-31T12:45:55;100425.88;;;20.29;100.00
67099;BME280;54288;53.046;5.668;2023-07-31T12:48:22;100418.97;;;20.27;100.00
67099;BME280;54288;53.046;5.668;2023-07-31T12:50:48;100426.19;;;20.25;100.00
67099;BME280;54288;53.046;5.668;2023-07-31T12:53:15;100430.00;;;20.21;100.00
67099;BME280;54288;53.046;5.668;2023-07-31T12:55:40;100431.06;;;20.18;100.00